SAAR/ROS METAR and TAF weather

Enter ICAO airport designator
Station Type Date Time Source
SAAR METAR 2020/12/06 01:00 UTC NOAA

SAAR 060100Z 07005KT CAVOK 18/12 Q1022


Station Type Date Time Source
SAAR Decoded METAR 2020/12/06 01:00 UTC NOAA

Rosario Aerodrome, Argentina (SAAR) 32-55S 060-47W 25M
Dec 05, 2020 - 08:00 PM EST / 2020.12.06 0100 UTC
Wind: from the ENE (070 degrees) at 6 MPH (5 KT):0
Visibility: greater than 7 mile(s):0
Temperature: 64 F (18 C)
Dew Point: 53 F (12 C)
Relative Humidity: 67%
Pressure (altimeter): 30.18 in. Hg (1022 hPa)
ob: SAAR 060100Z 07005KT CAVOK 18/12 Q1022
cycle: 1

Station Type Date Time Source
SAAR TAF 2020/12/06 00:00 UTC NOAA

TAF SAAR 052300Z 0600/0624 07010KT CAVOK TX24/0619Z TN12/0609Z
BECMG 0606/0608 VRB03KT
BECMG 0617/0619 09010KT

Example: see airport list